createdAt,value
2022-10-14T00:00:14.588Z,7.93
2022-10-14T00:02:43.414Z,8.00
2022-10-14T00:05:12.319Z,8.02
2022-10-14T00:07:40.931Z,7.96
2022-10-14T00:10:10.161Z,7.81
2022-10-14T00:12:39.028Z,7.76
2022-10-14T00:15:09.867Z,7.92
2022-10-14T00:17:38.379Z,7.96
2022-10-14T00:20:09.927Z,7.90
2022-10-14T00:22:38.554Z,7.91
2022-10-14T00:25:08.339Z,7.95
2022-10-14T00:27:36.999Z,7.99
2022-10-14T00:30:07.200Z,7.92
2022-10-14T00:32:35.780Z,7.87
2022-10-14T00:35:05.915Z,7.92
2022-10-14T00:37:46.831Z,7.95
2022-10-14T00:40:15.694Z,7.89
2022-10-14T00:42:44.409Z,7.94
2022-10-14T00:45:16.665Z,8.04
2022-10-14T00:47:46.736Z,8.06
2022-10-14T00:50:16.288Z,7.89
2022-10-14T00:52:45.627Z,7.71
2022-10-14T00:55:17.307Z,7.71
2022-10-14T00:57:47.060Z,7.73
2022-10-14T01:00:19.878Z,7.74
2022-10-14T01:02:48.552Z,7.71
2022-10-14T01:05:20.278Z,7.78
2022-10-14T01:08:08.054Z,7.82
2022-10-14T01:10:44.308Z,7.80
2022-10-14T01:13:25.564Z,7.75
2022-10-14T01:16:03.774Z,7.80
2022-10-14T01:18:46.506Z,7.96
2022-10-14T01:21:20.524Z,8.02
2022-10-14T01:24:11.288Z,8.00
2022-10-14T01:26:55.834Z,7.96
2022-10-14T01:29:57.331Z,7.79
2022-10-14T01:32:29.469Z,8.03
2022-10-14T01:35:06.469Z,8.02
2022-10-14T01:37:43.246Z,7.84
2022-10-14T01:40:20.376Z,7.95
2022-10-14T01:42:49.984Z,7.80
2022-10-14T01:45:23.551Z,7.72
2022-10-14T01:47:54.316Z,7.80
2022-10-14T01:50:27.064Z,7.81
2022-10-14T01:52:59.484Z,7.79
2022-10-14T01:55:32.949Z,7.94
2022-10-14T01:58:02.651Z,7.95
2022-10-14T02:00:31.551Z,7.87
2022-10-14T02:03:00.155Z,7.93
2022-10-14T02:05:34.640Z,7.91
2022-10-14T02:08:10.936Z,7.80
2022-10-14T02:11:02.393Z,7.66
2022-10-14T02:13:50.132Z,7.73
2022-10-14T02:16:27.106Z,7.81
2022-10-14T02:19:02.684Z,7.85
2022-10-14T02:21:36.388Z,7.88
2022-10-14T02:24:09.830Z,7.81
2022-10-14T02:26:40.358Z,7.65
2022-10-14T02:29:09.405Z,7.54
2022-10-14T02:31:39.901Z,7.55
2022-10-14T02:34:12.671Z,7.53
2022-10-14T02:36:43.055Z,7.46
2022-10-14T02:39:13.934Z,7.53
2022-10-14T02:41:42.835Z,7.56
2022-10-14T02:44:11.690Z,7.50
2022-10-14T02:46:42.853Z,7.42
2022-10-14T02:49:11.609Z,7.45
2022-10-14T02:51:40.473Z,7.66
2022-10-14T02:54:09.163Z,7.63
2022-10-14T02:56:37.697Z,7.67
2022-10-14T02:59:06.249Z,7.75
2022-10-14T03:01:37.744Z,7.69
2022-10-14T03:04:06.667Z,7.82
2022-10-14T03:06:35.339Z,7.86
2022-10-14T03:09:04.659Z,7.74
2022-10-14T03:11:33.791Z,7.78
2022-10-14T03:14:02.479Z,7.81
2022-10-14T03:16:31.137Z,7.87
2022-10-14T03:18:59.702Z,7.92
2022-10-14T03:21:28.446Z,7.93
2022-10-14T03:24:05.634Z,7.89
2022-10-14T03:26:47.012Z,8.03
2022-10-14T03:29:24.804Z,8.19
2022-10-14T03:32:02.402Z,8.21
2022-10-14T03:34:30.908Z,8.10
2022-10-14T03:36:59.743Z,8.00
2022-10-14T03:39:28.651Z,7.94
2022-10-14T03:41:57.555Z,7.87
2022-10-14T03:44:26.345Z,7.78
2022-10-14T03:46:55.484Z,7.67
2022-10-14T03:49:24.814Z,7.64
2022-10-14T03:51:53.908Z,7.65
2022-10-14T03:54:22.643Z,7.69
2022-10-14T03:56:51.738Z,7.72
2022-10-14T03:59:20.993Z,7.82
2022-10-14T04:01:49.589Z,7.91
2022-10-14T04:04:19.486Z,7.97
2022-10-14T04:06:48.048Z,8.00
2022-10-14T04:09:16.735Z,7.88
2022-10-14T04:11:45.641Z,7.97
2022-10-14T04:14:14.471Z,8.06
2022-10-14T04:16:46.050Z,8.01
2022-10-14T04:19:19.078Z,7.92
2022-10-14T04:21:47.687Z,8.02
2022-10-14T04:24:16.374Z,8.19
2022-10-14T04:26:45.077Z,8.29
2022-10-14T04:29:14.433Z,8.30
2022-10-14T04:31:43.084Z,8.24
2022-10-14T04:34:12.502Z,8.16
2022-10-14T04:36:41.714Z,8.07
2022-10-14T04:39:10.506Z,7.99
2022-10-14T04:41:39.703Z,8.03
2022-10-14T04:44:08.349Z,8.17
2022-10-14T04:46:37.020Z,8.11
2022-10-14T04:49:05.666Z,7.95
2022-10-14T04:51:34.658Z,7.95
2022-10-14T04:54:03.947Z,7.97
2022-10-14T04:56:32.911Z,7.93
2022-10-14T04:59:01.830Z,7.84
2022-10-14T05:01:33.899Z,7.75
2022-10-14T05:04:02.797Z,7.79
2022-10-14T05:06:31.692Z,7.81
2022-10-14T05:09:00.526Z,7.90
2022-10-14T05:11:29.654Z,7.99
2022-10-14T05:13:58.543Z,8.08
2022-10-14T05:16:27.744Z,7.97
2022-10-14T05:18:56.808Z,7.86
2022-10-14T05:21:25.644Z,7.91
2022-10-14T05:23:54.282Z,7.99
2022-10-14T05:26:22.908Z,8.11
2022-10-14T05:28:53.563Z,8.23
2022-10-14T05:31:22.251Z,8.42
2022-10-14T05:33:50.932Z,8.49
2022-10-14T05:36:19.981Z,8.47
2022-10-14T05:38:50.227Z,8.40
2022-10-14T05:41:18.870Z,8.50
2022-10-14T05:43:47.898Z,8.54
2022-10-14T05:46:16.673Z,8.59
2022-10-14T05:48:45.723Z,8.64
2022-10-14T05:51:15.097Z,8.63
2022-10-14T05:53:44.176Z,8.62
2022-10-14T05:56:12.773Z,8.72
2022-10-14T05:58:41.500Z,8.76
2022-10-14T06:01:11.467Z,8.84
2022-10-14T06:03:40.152Z,8.91
2022-10-14T06:06:14.157Z,8.91
2022-10-14T06:08:43.361Z,8.83
2022-10-14T06:11:13.134Z,8.94
2022-10-14T06:13:42.212Z,9.02
2022-10-14T06:16:12.461Z,8.88
2022-10-14T06:18:41.553Z,8.86
2022-10-14T06:21:11.737Z,9.05
2022-10-14T06:23:41.323Z,9.22
2022-10-14T06:26:10.067Z,9.40
2022-10-14T06:28:39.238Z,9.59
2022-10-14T06:31:08.762Z,9.54
2022-10-14T06:33:37.440Z,9.48
2022-10-14T06:36:07.581Z,9.50
2022-10-14T06:38:36.409Z,9.56
2022-10-14T06:41:05.122Z,9.71
2022-10-14T06:43:34.816Z,9.90
2022-10-14T06:46:03.925Z,10.14
2022-10-14T06:48:32.821Z,10.24
2022-10-14T06:51:02.328Z,10.07
2022-10-14T06:53:31.752Z,9.91
2022-10-14T06:56:02.039Z,9.92
2022-10-14T06:58:32.367Z,10.01
2022-10-14T07:01:03.926Z,10.09
2022-10-14T07:03:35.969Z,10.19
2022-10-14T07:06:06.881Z,10.31
2022-10-14T07:08:35.539Z,10.34
2022-10-14T07:11:05.325Z,10.30
2022-10-14T07:13:34.585Z,10.39
2022-10-14T07:16:03.501Z,10.57
2022-10-14T07:18:32.262Z,10.76
2022-10-14T07:21:04.040Z,10.99
2022-10-14T07:23:33.349Z,11.21
2022-10-14T07:26:02.279Z,11.38
2022-10-14T07:28:31.458Z,11.62
2022-10-14T07:31:03.364Z,11.86
2022-10-14T07:33:34.445Z,11.98
2022-10-14T07:36:04.395Z,12.10
2022-10-14T07:38:33.484Z,12.34
2022-10-14T07:41:04.404Z,12.57
2022-10-14T07:43:35.430Z,12.78
2022-10-14T07:46:07.634Z,12.88
2022-10-14T07:48:55.801Z,12.98
2022-10-14T07:51:25.277Z,13.19
2022-10-14T07:53:55.015Z,13.41
2022-10-14T07:56:24.554Z,13.57
2022-10-14T07:58:54.264Z,13.77
2022-10-14T08:01:24.136Z,13.84
2022-10-14T08:03:53.325Z,13.93
2022-10-14T08:06:22.334Z,14.08
2022-10-14T08:08:51.471Z,14.33
2022-10-14T08:11:22.425Z,14.53
2022-10-14T08:13:52.304Z,14.76
2022-10-14T08:16:23.771Z,14.81
2022-10-14T08:18:53.163Z,14.87
2022-10-14T08:21:22.016Z,15.06
2022-10-14T08:23:50.945Z,15.10
2022-10-14T08:26:28.063Z,15.11
2022-10-14T08:28:56.959Z,15.20
2022-10-14T08:31:25.829Z,15.36
2022-10-14T08:33:54.768Z,15.51
2022-10-14T08:36:24.351Z,15.60
2022-10-14T08:38:54.532Z,15.58
2022-10-14T08:41:38.948Z,15.50
2022-10-14T08:44:16.191Z,15.40
2022-10-14T08:46:52.255Z,15.26
2022-10-14T08:49:29.038Z,15.26
2022-10-14T08:52:01.168Z,15.29
2022-10-14T08:54:36.693Z,15.31
2022-10-14T08:57:12.789Z,15.42
2022-10-14T08:59:42.582Z,15.46
2022-10-14T09:02:21.799Z,15.48
2022-10-14T09:04:50.845Z,15.61
2022-10-14T09:07:21.392Z,15.69
2022-10-14T09:09:53.284Z,15.90
2022-10-14T09:12:27.140Z,16.12
2022-10-14T09:15:08.874Z,16.14
2022-10-14T09:17:43.189Z,15.91
2022-10-14T09:20:21.341Z,15.68
2022-10-14T09:23:01.382Z,15.71
2022-10-14T09:25:34.405Z,15.68
2022-10-14T09:28:03.368Z,15.76
2022-10-14T09:30:38.677Z,15.85
2022-10-14T09:33:14.523Z,15.89
2022-10-14T09:35:44.164Z,15.86
2022-10-14T09:38:15.212Z,15.88
2022-10-14T09:40:46.160Z,16.08
2022-10-14T09:43:18.166Z,16.27
2022-10-14T09:45:57.013Z,16.37
2022-10-14T09:48:37.412Z,16.58
2022-10-14T09:51:08.833Z,16.70
2022-10-14T09:53:41.766Z,16.73
2022-10-14T09:56:12.003Z,16.84
2022-10-14T09:58:45.467Z,16.93
2022-10-14T10:01:17.193Z,17.18
2022-10-14T10:03:46.805Z,17.31
2022-10-14T10:06:18.859Z,17.43
2022-10-14T10:08:59.668Z,17.54
2022-10-14T10:11:35.313Z,17.64
2022-10-14T10:14:18.540Z,17.68
2022-10-14T10:16:48.128Z,17.72
2022-10-14T10:19:28.403Z,17.81
2022-10-14T10:22:20.957Z,17.80
2022-10-14T10:24:51.860Z,17.69
2022-10-14T10:27:27.363Z,17.63
2022-10-14T10:29:56.390Z,17.59
2022-10-14T10:32:33.627Z,17.63
2022-10-14T10:35:15.845Z,17.64
2022-10-14T10:37:56.839Z,17.68
2022-10-14T10:40:48.032Z,17.70
2022-10-14T10:43:34.235Z,17.65
2022-10-14T10:46:14.751Z,17.89
2022-10-14T10:48:47.328Z,18.02
2022-10-14T10:51:22.138Z,18.00
2022-10-14T10:54:06.218Z,18.02
2022-10-14T10:56:42.497Z,18.11
2022-10-14T10:59:35.056Z,18.00
2022-10-14T11:02:33.270Z,18.07
2022-10-14T11:05:09.656Z,18.14
2022-10-14T11:08:05.615Z,18.21
2022-10-14T11:10:59.753Z,18.21
2022-10-14T11:13:36.951Z,18.19
2022-10-14T11:16:11.880Z,18.32
2022-10-14T11:18:47.114Z,18.25
2022-10-14T11:21:23.683Z,18.07
2022-10-14T11:24:02.945Z,18.09
2022-10-14T11:26:55.870Z,18.16
2022-10-14T11:29:48.603Z,18.18
2022-10-14T11:32:23.724Z,18.32
2022-10-14T11:35:10.644Z,18.50
2022-10-14T11:37:49.584Z,18.36
2022-10-14T11:40:23.649Z,18.36
2022-10-14T11:43:07.792Z,18.32
2022-10-14T11:45:49.864Z,18.31
2022-10-14T11:48:27.830Z,18.35
2022-10-14T11:51:02.402Z,18.49
2022-10-14T11:56:22.391Z,18.91
2022-10-14T11:58:54.292Z,18.84
2022-10-14T12:01:34.131Z,18.88
2022-10-14T12:04:13.241Z,18.86
2022-10-14T12:06:46.330Z,18.85
2022-10-14T12:09:23.214Z,18.89
2022-10-14T12:11:56.705Z,18.95
2022-10-14T12:14:33.039Z,18.90
2022-10-14T12:17:05.601Z,18.80
2022-10-14T12:19:36.377Z,18.78
2022-10-14T12:22:16.091Z,18.78
2022-10-14T12:24:48.765Z,18.76
2022-10-14T12:27:20.183Z,18.85
2022-10-14T12:29:50.290Z,18.98
2022-10-14T12:32:23.678Z,18.90
2022-10-14T12:34:56.314Z,19.05
2022-10-14T12:37:52.513Z,18.99
2022-10-14T12:40:27.543Z,18.90
2022-10-14T12:43:15.053Z,18.91
2022-10-14T12:45:52.965Z,18.89
2022-10-14T12:48:25.520Z,18.83
2022-10-14T12:51:06.234Z,18.81
2022-10-14T12:53:37.251Z,18.77
2022-10-14T12:56:07.751Z,18.71
2022-10-14T12:58:41.317Z,18.69
2022-10-14T13:01:19.474Z,18.65
2022-10-14T13:03:55.357Z,18.69
2022-10-14T13:06:35.459Z,18.73
2022-10-14T13:09:32.733Z,18.94
2022-10-14T13:12:35.030Z,18.80
2022-10-14T13:15:25.052Z,18.90
2022-10-14T13:17:53.712Z,18.90
2022-10-14T13:20:52.779Z,18.92
2022-10-14T13:23:35.676Z,18.92
2022-10-14T13:26:22.362Z,19.02
2022-10-14T13:29:06.781Z,19.16
2022-10-14T13:31:43.125Z,19.07
2022-10-14T13:34:27.599Z,19.01
2022-10-14T13:37:06.262Z,19.15
2022-10-14T13:39:35.840Z,19.36
2022-10-14T13:42:04.764Z,19.27
2022-10-14T13:44:34.168Z,19.06
2022-10-14T13:47:03.962Z,19.03
2022-10-14T13:49:40.114Z,18.98
2022-10-14T13:52:18.583Z,19.05
2022-10-14T13:54:47.423Z,19.03
2022-10-14T13:57:47.751Z,19.05
2022-10-14T14:00:42.882Z,19.12
2022-10-14T14:03:20.566Z,19.14
2022-10-14T14:05:51.099Z,18.95
2022-10-14T14:08:41.889Z,18.91
2022-10-14T14:11:19.031Z,18.93
2022-10-14T14:13:58.880Z,18.91
2022-10-14T14:16:32.258Z,18.80
2022-10-14T14:19:10.544Z,18.63
2022-10-14T14:21:39.531Z,18.63
2022-10-14T14:24:18.411Z,18.78
2022-10-14T14:26:47.250Z,18.79
2022-10-14T14:29:19.715Z,18.71
2022-10-14T14:32:18.408Z,18.69
2022-10-14T14:34:39.119Z,18.65
2022-10-14T14:40:01.360Z,18.51
2022-10-14T14:42:35.553Z,18.52
2022-10-14T14:45:12.234Z,18.52
2022-10-14T14:47:42.682Z,18.34
2022-10-14T14:50:30.796Z,18.39
2022-10-14T14:53:03.530Z,18.40
2022-10-14T14:55:38.442Z,18.56
2022-10-14T14:58:20.003Z,18.51
2022-10-14T15:00:49.639Z,18.57
2022-10-14T15:03:18.920Z,18.50
2022-10-14T15:05:53.107Z,18.38
2022-10-14T15:08:24.889Z,18.43
2022-10-14T15:10:55.845Z,18.37
2022-10-14T15:13:47.845Z,18.27
2022-10-14T15:16:33.710Z,18.13
2022-10-14T15:19:27.449Z,18.02
2022-10-14T15:22:32.165Z,17.96
2022-10-14T15:25:02.527Z,18.04
2022-10-14T15:27:51.875Z,17.91
2022-10-14T15:30:27.134Z,17.92
2022-10-14T15:33:00.116Z,17.92
2022-10-14T15:35:30.219Z,17.96
2022-10-14T15:37:58.907Z,17.82
2022-10-14T15:40:30.511Z,17.76
2022-10-14T15:42:59.440Z,17.79
2022-10-14T15:45:28.899Z,17.77
2022-10-14T15:48:01.890Z,17.75
2022-10-14T15:50:30.729Z,17.85
2022-10-14T15:52:59.610Z,17.92
2022-10-14T15:55:34.767Z,18.01
2022-10-14T15:58:04.762Z,17.90
2022-10-14T16:00:34.894Z,17.76
2022-10-14T16:03:03.720Z,17.65
2022-10-14T16:05:32.458Z,17.75
2022-10-14T16:08:01.201Z,17.76
2022-10-14T16:10:32.140Z,17.69
2022-10-14T16:13:07.661Z,17.69
2022-10-14T16:15:40.086Z,17.56
2022-10-14T16:18:08.829Z,17.33
2022-10-14T16:20:38.256Z,17.28
2022-10-14T16:23:08.557Z,17.31
2022-10-14T16:25:39.574Z,17.23
2022-10-14T16:28:10.163Z,17.14
2022-10-14T16:30:43.539Z,16.99
2022-10-14T16:33:12.393Z,16.96
2022-10-14T16:35:41.023Z,16.99
2022-10-14T16:38:13.467Z,17.07
2022-10-14T16:40:42.259Z,17.14
2022-10-14T16:43:11.117Z,17.20
2022-10-14T16:45:40.071Z,17.30
2022-10-14T16:48:08.799Z,17.18
2022-10-14T16:50:37.585Z,17.01
2022-10-14T16:53:24.805Z,17.09
2022-10-14T16:55:56.346Z,17.07
2022-10-14T16:58:25.122Z,17.09
2022-10-14T17:00:54.287Z,17.06
2022-10-14T17:03:22.869Z,16.98
2022-10-14T17:05:58.771Z,16.87
2022-10-14T17:08:27.398Z,16.86
2022-10-14T17:10:58.990Z,16.86
2022-10-14T17:13:27.774Z,16.82
2022-10-14T17:16:01.694Z,16.74
2022-10-14T17:18:34.513Z,16.69
2022-10-14T17:21:06.660Z,16.64
2022-10-14T17:23:36.318Z,16.42
2022-10-14T17:26:06.070Z,16.40
2022-10-14T17:28:35.241Z,16.40
2022-10-14T17:31:09.615Z,16.44
2022-10-14T17:33:38.879Z,16.49
2022-10-14T17:36:14.430Z,16.47
2022-10-14T17:38:43.997Z,16.40
2022-10-14T17:41:14.906Z,16.31
2022-10-14T17:43:46.051Z,16.22
2022-10-14T17:46:16.397Z,16.28
2022-10-14T17:48:48.873Z,16.32
2022-10-14T17:51:18.170Z,16.35
2022-10-14T17:53:47.758Z,16.13
2022-10-14T17:56:17.157Z,16.07
2022-10-14T17:58:46.044Z,16.08
2022-10-14T18:01:16.145Z,15.92
2022-10-14T18:03:45.426Z,15.89
2022-10-14T18:06:16.695Z,16.00
2022-10-14T18:08:49.239Z,15.92
2022-10-14T18:11:18.977Z,15.91
2022-10-14T18:13:55.890Z,15.81
2022-10-14T18:16:27.482Z,15.83
2022-10-14T18:18:57.182Z,15.73
2022-10-14T18:21:27.208Z,15.64
2022-10-14T18:23:57.587Z,15.59
2022-10-14T18:26:26.502Z,15.47
2022-10-14T18:28:56.713Z,15.49
2022-10-14T18:31:27.714Z,15.56
2022-10-14T18:33:58.623Z,15.61
2022-10-14T18:36:29.579Z,15.44
2022-10-14T18:39:00.587Z,15.30
2022-10-14T18:41:30.375Z,15.31
2022-10-14T18:43:59.310Z,15.19
2022-10-14T18:46:30.376Z,15.10
2022-10-14T18:49:00.908Z,15.10
2022-10-14T18:51:32.870Z,14.96
2022-10-14T18:54:03.723Z,14.85
2022-10-14T18:56:34.562Z,14.75
2022-10-14T18:59:08.990Z,14.67
2022-10-14T19:01:39.191Z,14.56
2022-10-14T19:04:10.669Z,14.56
2022-10-14T19:06:40.195Z,14.73
2022-10-14T19:09:13.325Z,14.70
2022-10-14T19:11:43.434Z,14.59
2022-10-14T19:14:17.229Z,14.28
2022-10-14T19:16:47.371Z,14.10
2022-10-14T19:19:20.220Z,14.10
2022-10-14T19:21:53.890Z,14.15
2022-10-14T19:24:23.620Z,14.10
2022-10-14T19:26:54.047Z,14.01
2022-10-14T19:29:23.230Z,14.06
2022-10-14T19:31:54.335Z,14.06
2022-10-14T19:34:27.030Z,13.93
2022-10-14T19:36:56.681Z,13.88
2022-10-14T19:39:26.139Z,13.90
2022-10-14T19:41:55.364Z,13.77
2022-10-14T19:44:24.247Z,13.75
2022-10-14T19:46:53.254Z,13.70
2022-10-14T19:49:23.480Z,13.65
2022-10-14T19:51:52.269Z,13.59
2022-10-14T19:54:20.877Z,13.53
2022-10-14T19:56:49.513Z,13.45
2022-10-14T19:59:18.215Z,13.36
2022-10-14T20:01:46.826Z,13.24
2022-10-14T20:04:15.696Z,13.12
2022-10-14T20:06:44.750Z,13.14
2022-10-14T20:09:14.368Z,13.27
2022-10-14T20:11:43.232Z,13.22
2022-10-14T20:14:11.917Z,13.26
2022-10-14T20:16:40.816Z,13.22
2022-10-14T20:19:09.629Z,13.03
2022-10-14T20:21:38.316Z,12.89
2022-10-14T20:24:07.792Z,12.85
2022-10-14T20:26:37.633Z,12.91
2022-10-14T20:29:06.518Z,12.85
2022-10-14T20:31:35.521Z,12.89
2022-10-14T20:34:08.636Z,12.96
2022-10-14T20:36:40.346Z,12.84
2022-10-14T20:39:09.345Z,12.69
2022-10-14T20:41:37.943Z,12.70
2022-10-14T20:44:06.903Z,12.58
2022-10-14T20:46:35.634Z,12.50
2022-10-14T20:49:04.859Z,12.38
2022-10-14T20:51:33.643Z,12.36
2022-10-14T20:54:05.109Z,12.30
2022-10-14T20:56:36.592Z,12.27
2022-10-14T20:59:07.951Z,12.29
2022-10-14T21:01:37.835Z,12.29
2022-10-14T21:04:08.122Z,12.30
2022-10-14T21:06:38.295Z,12.29
2022-10-14T21:09:07.710Z,12.15
2022-10-14T21:11:36.439Z,12.12
2022-10-14T21:14:05.190Z,12.06
2022-10-14T21:16:35.185Z,12.03
2022-10-14T21:19:05.940Z,12.03
2022-10-14T21:21:38.533Z,12.15
2022-10-14T21:24:08.714Z,12.06
2022-10-14T21:26:37.227Z,12.03
2022-10-14T21:29:06.420Z,12.06
2022-10-14T21:31:35.886Z,12.02
2022-10-14T21:34:06.608Z,11.88
2022-10-14T21:36:36.205Z,11.83
2022-10-14T21:39:07.471Z,11.77
2022-10-14T21:41:36.197Z,11.69
2022-10-14T21:44:05.960Z,11.70
2022-10-14T21:46:35.465Z,11.60
2022-10-14T21:49:04.675Z,11.51
2022-10-14T21:51:33.937Z,11.37
2022-10-14T21:54:02.686Z,11.28
2022-10-14T21:56:31.419Z,11.38
2022-10-14T21:59:00.269Z,11.39
2022-10-14T22:01:30.275Z,11.46
2022-10-14T22:04:03.148Z,11.47
2022-10-14T22:06:33.749Z,11.47
2022-10-14T22:09:05.612Z,11.32
2022-10-14T22:11:35.919Z,11.09
2022-10-14T22:14:06.626Z,10.95
2022-10-14T22:16:35.567Z,10.97
2022-10-14T22:19:06.891Z,11.14
2022-10-14T22:21:38.062Z,11.24
2022-10-14T22:26:37.583Z,11.02
2022-10-14T22:29:10.022Z,11.04
2022-10-14T22:31:39.043Z,11.04
2022-10-14T22:34:08.756Z,11.07
2022-10-14T22:36:37.589Z,11.12
2022-10-14T22:39:12.719Z,11.09
2022-10-14T22:41:41.640Z,11.14
2022-10-14T22:44:11.382Z,11.03
2022-10-14T22:46:40.760Z,10.94
2022-10-14T22:49:09.426Z,11.12
2022-10-14T22:51:40.577Z,11.18
2022-10-14T22:54:09.873Z,11.24
2022-10-14T22:56:39.168Z,11.33
2022-10-14T22:59:10.784Z,11.34
2022-10-14T23:01:40.258Z,11.27
2022-10-14T23:04:09.660Z,11.25
2022-10-14T23:06:39.370Z,11.12
2022-10-14T23:09:08.457Z,11.02
2022-10-14T23:11:37.175Z,10.96
2022-10-14T23:14:07.378Z,10.85
2022-10-14T23:16:36.479Z,10.83
2022-10-14T23:19:05.199Z,10.84
2022-10-14T23:21:35.828Z,10.79
2022-10-14T23:24:08.497Z,10.81
2022-10-14T23:26:37.364Z,10.64
2022-10-14T23:29:08.518Z,10.62
2022-10-14T23:31:38.324Z,10.67
2022-10-14T23:34:08.268Z,10.68
2022-10-14T23:36:38.535Z,10.70
2022-10-14T23:39:07.362Z,10.79
2022-10-14T23:41:36.537Z,10.67
2022-10-14T23:44:05.292Z,10.52
2022-10-14T23:46:33.952Z,10.43
2022-10-14T23:49:07.485Z,10.40
2022-10-14T23:51:42.961Z,10.42
2022-10-14T23:54:11.608Z,10.55
2022-10-14T23:56:40.176Z,10.58
2022-10-14T23:59:09.141Z,10.69
